createdAt,value
2022-12-06T00:01:18.664Z,102137.75
2022-12-06T00:03:48.721Z,102125.97
2022-12-06T00:06:20.117Z,102129.66
2022-12-06T00:08:50.429Z,102120.81
2022-12-06T00:11:20.160Z,102122.66
2022-12-06T00:13:48.898Z,102117.25
2022-12-06T00:16:18.641Z,102111.09
2022-12-06T00:18:48.181Z,102113.91
2022-12-06T00:21:18.896Z,102113.19
2022-12-06T00:23:50.868Z,102106.94
2022-12-06T00:26:20.114Z,102099.56
2022-12-06T00:28:48.565Z,102095.66
2022-12-06T00:31:18.461Z,102106.69
2022-12-06T00:33:46.814Z,102096.88
2022-12-06T00:36:18.322Z,102102.75
2022-12-06T00:38:47.579Z,102101.91
2022-12-06T00:41:19.144Z,102096.50
2022-12-06T00:43:48.249Z,102090.72
2022-12-06T00:46:19.155Z,102077.09
2022-12-06T00:48:48.014Z,102086.53
2022-12-06T00:51:18.312Z,102087.66
2022-12-06T00:53:47.009Z,102082.13
2022-12-06T00:56:17.222Z,102083.72
2022-12-06T00:58:45.873Z,102083.84
2022-12-06T01:01:16.026Z,102081.63
2022-12-06T01:03:45.364Z,102075.56
2022-12-06T01:06:15.034Z,102075.97
2022-12-06T01:08:43.824Z,102076.22
2022-12-06T01:11:14.403Z,102073.28
2022-12-06T01:13:44.530Z,102069.84
2022-12-06T01:16:15.323Z,102066.88
2022-12-06T01:18:44.778Z,102069.34
2022-12-06T01:21:15.108Z,102060.75
2022-12-06T01:23:44.125Z,102063.44
2022-12-06T01:26:16.585Z,102059.78
2022-12-06T01:28:46.876Z,102058.31
2022-12-06T01:31:15.486Z,102060.09
2022-12-06T01:33:44.397Z,102063.16
2022-12-06T01:36:18.021Z,102064.28
2022-12-06T01:38:46.571Z,102067.69
2022-12-06T01:41:14.853Z,102063.28
2022-12-06T01:43:46.106Z,102067.72
2022-12-06T01:46:22.021Z,102053.94
2022-12-06T01:48:53.465Z,102060.97
2022-12-06T01:51:22.568Z,102055.28
2022-12-06T01:53:52.372Z,102036.50
2022-12-06T01:56:20.718Z,102056.34
2022-12-06T01:58:52.623Z,102054.16
2022-12-06T02:01:20.916Z,102045.19
2022-12-06T02:03:49.816Z,102050.81
2022-12-06T02:06:18.661Z,102054.88
2022-12-06T02:08:47.850Z,102047.78
2022-12-06T02:11:16.063Z,102045.72
2022-12-06T02:13:44.453Z,102044.00
2022-12-06T02:16:24.376Z,102035.81
2022-12-06T02:18:57.443Z,102011.25
2022-12-06T02:21:33.780Z,102020.09
2022-12-06T02:24:43.804Z,102024.72
2022-12-06T02:27:39.392Z,102015.41
2022-12-06T02:30:18.380Z,102022.28
2022-12-06T02:32:55.068Z,102010.75
2022-12-06T02:35:29.885Z,102028.41
2022-12-06T02:38:01.294Z,102019.09
2022-12-06T02:40:32.980Z,102013.94
2022-12-06T02:43:03.863Z,102016.63
2022-12-06T02:45:36.140Z,102020.81
2022-12-06T02:48:06.765Z,102014.66
2022-12-06T02:50:39.020Z,102017.13
2022-12-06T02:53:09.643Z,102011.22
2022-12-06T02:55:38.733Z,102013.69
2022-12-06T02:58:07.024Z,102010.25
2022-12-06T03:00:38.120Z,102001.63
2022-12-06T03:03:36.457Z,102005.28
2022-12-06T03:06:43.017Z,102002.81
2022-12-06T03:09:20.941Z,101999.75
2022-12-06T03:11:56.094Z,101996.06
2022-12-06T03:14:25.885Z,101985.84
2022-12-06T03:16:59.312Z,101992.44
2022-12-06T03:19:30.578Z,101996.88
2022-12-06T03:22:01.763Z,101997.47
2022-12-06T03:24:32.488Z,101999.09
2022-12-06T03:27:03.312Z,101992.16
2022-12-06T03:29:32.628Z,101998.91
2022-12-06T03:32:02.709Z,102005.03
2022-12-06T03:34:34.618Z,102004.91
2022-12-06T03:37:03.961Z,102003.19
2022-12-06T03:39:37.061Z,101998.66
2022-12-06T03:42:05.686Z,101992.38
2022-12-06T03:44:34.950Z,101993.84
2022-12-06T03:47:07.653Z,101996.41
2022-12-06T03:49:41.209Z,101986.00
2022-12-06T03:52:10.315Z,101988.44
2022-12-06T03:54:41.160Z,101967.06
2022-12-06T03:57:10.952Z,101969.03
2022-12-06T03:59:39.169Z,101972.47
2022-12-06T04:02:07.421Z,101957.03
2022-12-06T04:04:37.324Z,101962.16
2022-12-06T04:07:05.649Z,101960.47
2022-12-06T04:09:51.533Z,101949.41
2022-12-06T04:12:37.672Z,101946.56
2022-12-06T04:15:06.224Z,101942.53
2022-12-06T04:17:51.705Z,101950.38
2022-12-06T04:20:21.480Z,101938.50
2022-12-06T04:23:03.717Z,101932.25
2022-12-06T04:25:32.859Z,101940.63
2022-12-06T04:28:19.519Z,101930.28
2022-12-06T04:31:05.410Z,101937.91
2022-12-06T04:33:51.477Z,101932.25
2022-12-06T04:36:38.477Z,101951.91
2022-12-06T04:39:06.747Z,101940.88
2022-12-06T04:41:52.692Z,101928.81
2022-12-06T04:44:21.088Z,101930.53
2022-12-06T04:46:49.343Z,101943.78
2022-12-06T04:49:17.621Z,101954.06
2022-12-06T04:51:47.292Z,101938.88
2022-12-06T04:54:16.596Z,101947.69
2022-12-06T04:56:45.135Z,101941.81
2022-12-06T04:59:14.323Z,101938.50
2022-12-06T05:01:42.507Z,101945.63
2022-12-06T05:04:10.983Z,101944.19
2022-12-06T05:06:39.213Z,101947.59
2022-12-06T05:09:08.865Z,101937.06
2022-12-06T05:11:37.276Z,101936.47
2022-12-06T05:14:05.513Z,101942.09
2022-12-06T05:16:33.821Z,101933.00
2022-12-06T05:19:02.172Z,101938.69
2022-12-06T05:21:30.410Z,101938.69
2022-12-06T05:23:59.294Z,101936.25
2022-12-06T05:26:30.465Z,101936.69
2022-12-06T05:28:59.595Z,101936.69
2022-12-06T05:31:29.064Z,101939.41
2022-12-06T05:33:57.447Z,101932.25
2022-12-06T05:36:27.191Z,101927.81
2022-12-06T05:38:55.773Z,101927.59
2022-12-06T05:41:26.302Z,101925.88
2022-12-06T05:43:55.876Z,101924.69
2022-12-06T05:46:24.648Z,101923.59
2022-12-06T05:48:53.116Z,101922.22
2022-12-06T05:51:21.292Z,101932.16
2022-12-06T05:53:49.520Z,101921.00
2022-12-06T05:56:17.810Z,101916.97
2022-12-06T05:58:45.948Z,101919.56
2022-12-06T06:01:16.018Z,101916.13
2022-12-06T06:03:47.710Z,101912.69
2022-12-06T06:06:16.748Z,101917.13
2022-12-06T06:08:45.041Z,101913.19
2022-12-06T06:11:13.230Z,101923.25
2022-12-06T06:13:41.368Z,101915.88
2022-12-06T06:16:09.765Z,101918.09
2022-12-06T06:18:39.556Z,101913.88
2022-12-06T06:21:07.747Z,101913.63
2022-12-06T06:23:36.065Z,101922.78
2022-12-06T06:26:08.456Z,101919.25
2022-12-06T06:28:37.009Z,101922.16
2022-12-06T06:31:05.719Z,101916.81
2022-12-06T06:33:34.531Z,101906.44
2022-12-06T06:36:05.232Z,101913.38
2022-12-06T06:38:33.445Z,101908.91
2022-12-06T06:41:03.000Z,101901.13
2022-12-06T06:43:31.599Z,101922.28
2022-12-06T06:46:01.438Z,101917.84
2022-12-06T06:48:35.205Z,101913.72
2022-12-06T06:51:05.858Z,101920.38
2022-12-06T06:53:34.313Z,101916.97
2022-12-06T06:56:02.895Z,101924.69
2022-12-06T06:58:31.161Z,101924.94
2022-12-06T07:01:00.700Z,101934.84
2022-12-06T07:03:31.518Z,101920.38
2022-12-06T07:06:01.363Z,101921.63
2022-12-06T07:08:32.656Z,101914.75
2022-12-06T07:11:01.258Z,101925.00
2022-12-06T07:13:30.602Z,101920.34
2022-12-06T07:15:59.694Z,101907.47
2022-12-06T07:18:27.954Z,101901.66
2022-12-06T07:21:01.710Z,101900.84
2022-12-06T07:23:31.533Z,101907.97
2022-12-06T07:26:04.214Z,101908.88
2022-12-06T07:28:32.506Z,101900.63
2022-12-06T07:31:00.745Z,101908.06
2022-12-06T07:33:29.131Z,101907.53
2022-12-06T07:36:12.056Z,101908.72
2022-12-06T07:38:44.390Z,101905.56
2022-12-06T07:41:31.414Z,101909.31
2022-12-06T07:44:19.409Z,101897.91
2022-12-06T07:46:48.234Z,101910.66
2022-12-06T07:49:17.091Z,101900.47
2022-12-06T07:51:45.683Z,101917.78
2022-12-06T07:54:16.191Z,101915.53
2022-12-06T07:56:44.908Z,101901.25
2022-12-06T07:59:13.685Z,101914.75
2022-12-06T08:01:42.017Z,101919.28
2022-12-06T08:04:10.460Z,101920.88
2022-12-06T08:06:38.894Z,101903.56
2022-12-06T08:09:08.814Z,101900.94
2022-12-06T08:11:38.504Z,101901.13
2022-12-06T08:14:06.880Z,101900.53
2022-12-06T08:16:35.151Z,101889.97
2022-12-06T08:19:03.464Z,101884.28
2022-12-06T08:21:31.838Z,101883.41
2022-12-06T08:24:00.082Z,101875.75
2022-12-06T08:26:28.278Z,101881.41
2022-12-06T08:28:57.998Z,101879.44
2022-12-06T08:31:26.529Z,101875.88
2022-12-06T08:33:54.853Z,101877.47
2022-12-06T08:36:25.167Z,101875.28
2022-12-06T08:38:53.632Z,101866.59
2022-12-06T08:41:41.729Z,101862.84
2022-12-06T08:44:14.490Z,101856.53
2022-12-06T08:46:43.233Z,101856.19
2022-12-06T08:49:11.880Z,101854.31
2022-12-06T08:51:40.480Z,101843.56
2022-12-06T08:54:10.268Z,101814.25
2022-12-06T08:56:38.487Z,101829.72
2022-12-06T08:59:07.166Z,101833.19
2022-12-06T09:01:38.307Z,101834.59
2022-12-06T09:04:07.959Z,101824.66
2022-12-06T09:06:38.532Z,101826.97
2022-12-06T09:09:06.779Z,101805.19
2022-12-06T09:11:35.276Z,101830.88
2022-12-06T09:14:03.673Z,101828.09
2022-12-06T09:16:32.187Z,101825.03
2022-12-06T09:19:02.230Z,101827.03
2022-12-06T09:21:33.127Z,101830.81
2022-12-06T09:24:01.681Z,101829.13
2022-12-06T09:26:30.305Z,101825.19
2022-12-06T09:28:59.788Z,101813.31
2022-12-06T09:31:28.109Z,101820.31
2022-12-06T09:33:56.451Z,101813.38
2022-12-06T09:36:28.339Z,101803.69
2022-12-06T09:38:59.593Z,101803.94
2022-12-06T09:41:44.524Z,101806.88
2022-12-06T09:44:28.918Z,101801.72
2022-12-06T09:47:04.352Z,101786.06
2022-12-06T09:49:34.001Z,101793.41
2022-12-06T09:52:16.650Z,101794.53
2022-12-06T09:55:00.109Z,101787.97
2022-12-06T09:57:35.572Z,101792.81
2022-12-06T10:00:11.377Z,101793.72
2022-12-06T10:03:02.016Z,101790.56
2022-12-06T10:05:38.646Z,101788.69
2022-12-06T10:08:17.602Z,101782.00
2022-12-06T10:10:54.920Z,101772.47
2022-12-06T10:13:34.143Z,101776.50
2022-12-06T10:16:11.382Z,101780.53
2022-12-06T10:18:55.505Z,101778.81
2022-12-06T10:21:29.246Z,101776.41
2022-12-06T10:24:08.577Z,101771.44
2022-12-06T10:26:41.582Z,101766.69
2022-12-06T10:29:17.442Z,101764.16
2022-12-06T10:31:56.689Z,101754.97
2022-12-06T10:34:34.769Z,101745.13
2022-12-06T10:37:09.688Z,101750.00
2022-12-06T10:39:54.895Z,101745.13
2022-12-06T10:42:31.446Z,101741.06
2022-12-06T10:45:25.086Z,101747.03
2022-12-06T10:47:55.095Z,101736.31
2022-12-06T10:50:27.084Z,101742.13
2022-12-06T10:53:02.098Z,101730.41
2022-12-06T10:55:36.474Z,101732.66
2022-12-06T10:58:10.722Z,101719.31
2022-12-06T11:00:42.753Z,101732.53
2022-12-06T11:03:16.260Z,101743.84
2022-12-06T11:05:48.089Z,101730.59
2022-12-06T11:08:19.460Z,101732.66
2022-12-06T11:10:49.672Z,101733.16
2022-12-06T11:13:22.096Z,101730.06
2022-12-06T11:15:56.443Z,101733.50
2022-12-06T11:18:28.699Z,101716.66
2022-12-06T11:21:01.987Z,101705.00
2022-12-06T11:23:33.400Z,101726.88
2022-12-06T11:26:08.714Z,101721.97
2022-12-06T11:28:38.933Z,101727.09
2022-12-06T11:31:27.243Z,101718.78
2022-12-06T11:33:55.616Z,101716.72
2022-12-06T11:36:26.531Z,101714.31
2022-12-06T11:38:54.885Z,101712.63
2022-12-06T11:41:26.666Z,101710.56
2022-12-06T11:43:55.747Z,101719.41
2022-12-06T11:46:25.723Z,101720.25
2022-12-06T11:48:54.548Z,101697.63
2022-12-06T11:51:24.514Z,101709.50
2022-12-06T11:53:58.379Z,101693.13
2022-12-06T11:56:29.374Z,101698.63
2022-12-06T11:59:22.912Z,101693.56
2022-12-06T12:01:52.978Z,101695.56
2022-12-06T12:04:27.160Z,101682.31
2022-12-06T12:06:58.621Z,101670.00
2022-12-06T12:09:29.755Z,101684.28
2022-12-06T12:12:03.896Z,101686.47
2022-12-06T12:14:37.960Z,101680.44
2022-12-06T12:17:16.574Z,101671.75
2022-12-06T12:19:48.580Z,101692.00
2022-12-06T12:22:24.814Z,101692.63
2022-12-06T12:27:49.634Z,101680.06
2022-12-06T12:30:24.291Z,101674.63
2022-12-06T12:32:54.511Z,101690.59
2022-12-06T12:35:28.503Z,101688.91
2022-12-06T12:37:58.659Z,101685.16
2022-12-06T12:40:28.988Z,101676.88
2022-12-06T12:43:06.016Z,101682.31
2022-12-06T12:45:35.105Z,101687.88
2022-12-06T12:48:06.024Z,101691.78
2022-12-06T12:50:34.324Z,101684.53
2022-12-06T12:53:02.559Z,101693.41
2022-12-06T12:55:32.423Z,101696.81
2022-12-06T12:58:02.392Z,101692.00
2022-12-06T13:00:33.648Z,101696.03
2022-12-06T13:03:14.157Z,101694.66
2022-12-06T13:05:53.823Z,101703.84
2022-12-06T13:08:25.345Z,101705.22
2022-12-06T13:10:59.127Z,101697.75
2022-12-06T13:13:32.936Z,101700.22
2022-12-06T13:16:07.275Z,101690.31
2022-12-06T13:18:41.275Z,101705.22
2022-12-06T13:21:16.191Z,101696.34
2022-12-06T13:23:45.951Z,101707.94
2022-12-06T13:26:18.361Z,101695.50
2022-12-06T13:28:52.121Z,101693.97
2022-12-06T13:31:24.070Z,101703.91
2022-12-06T13:33:55.650Z,101699.00
2022-12-06T13:36:25.325Z,101703.44
2022-12-06T13:38:53.855Z,101697.31
2022-12-06T13:42:26.232Z,101697.63
2022-12-06T13:44:59.538Z,101690.47
2022-12-06T13:47:38.199Z,101694.84
2022-12-06T13:50:49.184Z,101702.94
2022-12-06T13:53:17.489Z,101695.16
2022-12-06T13:55:59.085Z,101687.78
2022-12-06T13:58:53.930Z,101679.94
2022-12-06T14:01:40.630Z,101693.84
2022-12-06T14:07:01.089Z,101688.63
2022-12-06T14:09:36.400Z,101682.81
2022-12-06T14:12:08.811Z,101675.59
2022-12-06T14:14:37.284Z,101682.41
2022-12-06T14:17:26.805Z,101661.34
2022-12-06T14:20:01.850Z,101677.19
2022-12-06T14:22:36.397Z,101673.78
2022-12-06T14:25:07.122Z,101671.34
2022-12-06T14:27:43.562Z,101675.78
2022-12-06T14:30:25.231Z,101668.97
2022-12-06T14:32:57.728Z,101668.28
2022-12-06T14:35:27.873Z,101688.25
2022-12-06T14:37:58.300Z,101671.28
2022-12-06T14:40:50.159Z,101689.97
2022-12-06T14:43:20.069Z,101682.53
2022-12-06T14:45:48.495Z,101685.16
2022-12-06T14:48:18.466Z,101689.13
2022-12-06T14:51:00.604Z,101682.84
2022-12-06T14:53:32.207Z,101684.84
2022-12-06T14:56:01.840Z,101680.44
2022-12-06T14:58:32.516Z,101678.88
2022-12-06T15:01:02.477Z,101682.03
2022-12-06T15:03:33.848Z,101690.88
2022-12-06T15:06:15.009Z,101676.28
2022-12-06T15:08:44.527Z,101671.19
2022-12-06T15:11:53.262Z,101677.50
2022-12-06T15:14:24.530Z,101650.47
2022-12-06T15:17:00.982Z,101665.25
2022-12-06T15:19:31.501Z,101674.09
2022-12-06T15:21:59.828Z,101671.00
2022-12-06T15:24:29.776Z,101670.00
2022-12-06T15:26:59.000Z,101675.25
2022-12-06T15:29:27.244Z,101668.41
2022-12-06T15:31:56.237Z,101661.44
2022-12-06T15:34:27.860Z,101661.44
2022-12-06T15:37:36.458Z,101662.75
2022-12-06T15:39:46.964Z,101665.06
2022-12-06T15:42:19.233Z,101663.34
2022-12-06T15:44:49.665Z,101658.63
2022-12-06T15:47:19.693Z,101656.50
2022-12-06T15:49:49.204Z,101658.81
2022-12-06T15:52:21.905Z,101658.53
2022-12-06T15:54:52.792Z,101655.09
2022-12-06T15:57:21.135Z,101660.84
2022-12-06T15:59:49.398Z,101654.41
2022-12-06T16:02:19.280Z,101654.69
2022-12-06T16:04:48.594Z,101649.44
2022-12-06T16:07:19.424Z,101653.00
2022-12-06T16:09:48.223Z,101651.72
2022-12-06T16:12:16.582Z,101650.56
2022-12-06T16:14:45.212Z,101650.56
2022-12-06T16:17:13.609Z,101643.44
2022-12-06T16:19:59.198Z,101647.41
2022-12-06T16:22:42.709Z,101657.13
2022-12-06T16:25:11.350Z,101652.38
2022-12-06T16:27:39.611Z,101646.28
2022-12-06T16:30:10.533Z,101657.41
2022-12-06T16:32:38.885Z,101639.44
2022-12-06T16:35:07.420Z,101646.28
2022-12-06T16:37:37.190Z,101651.09
2022-12-06T16:40:06.594Z,101643.66
2022-12-06T16:42:34.851Z,101655.38
2022-12-06T16:45:03.370Z,101648.53
2022-12-06T16:47:32.455Z,101642.25
2022-12-06T16:50:00.840Z,101644.81
2022-12-06T16:52:29.220Z,101646.81
2022-12-06T16:54:59.461Z,101642.25
2022-12-06T16:57:29.322Z,101632.56
2022-12-06T16:59:57.767Z,101637.13
2022-12-06T17:02:28.055Z,101632.56
2022-12-06T17:04:56.900Z,101634.03
2022-12-06T17:07:25.840Z,101637.00
2022-12-06T17:09:54.339Z,101641.75
2022-12-06T17:12:24.150Z,101637.19
2022-12-06T17:14:52.445Z,101639.44
2022-12-06T17:17:22.932Z,101641.44
2022-12-06T17:19:51.229Z,101639.47
2022-12-06T17:22:19.985Z,101640.91
2022-12-06T17:24:48.311Z,101641.13
2022-12-06T17:27:17.579Z,101637.44
2022-12-06T17:29:48.292Z,101637.00
2022-12-06T17:32:16.718Z,101627.47
2022-12-06T17:34:45.112Z,101630.31
2022-12-06T17:37:13.455Z,101629.50
2022-12-06T17:39:41.855Z,101631.50
2022-12-06T17:42:30.168Z,101622.94
2022-12-06T17:45:00.632Z,101626.38
2022-12-06T17:47:29.170Z,101627.16
2022-12-06T17:49:57.996Z,101627.47
2022-12-06T17:52:26.716Z,101616.09
2022-12-06T17:54:54.939Z,101616.94
2022-12-06T17:57:23.284Z,101606.09
2022-12-06T17:59:52.821Z,101610.53
2022-12-06T18:02:25.997Z,101610.53
2022-12-06T18:04:55.480Z,101615.69
2022-12-06T18:07:25.025Z,101614.13
2022-12-06T18:09:53.394Z,101608.94
2022-12-06T18:12:21.593Z,101615.78
2022-12-06T18:14:49.971Z,101618.03
2022-12-06T18:17:18.366Z,101607.59
2022-12-06T18:19:47.967Z,101610.88
2022-12-06T18:22:16.771Z,101613.75
2022-12-06T18:24:45.235Z,101613.03
2022-12-06T18:27:13.740Z,101612.72
2022-12-06T18:29:42.149Z,101624.00
2022-12-06T18:32:11.663Z,101611.03
2022-12-06T18:34:40.053Z,101612.28
2022-12-06T18:37:09.750Z,101609.56
2022-12-06T18:39:38.065Z,101621.03
2022-12-06T18:42:06.564Z,101613.44
2022-12-06T18:44:34.852Z,101620.56
2022-12-06T18:47:03.200Z,101621.72
2022-12-06T18:49:31.575Z,101621.13
2022-12-06T18:51:59.868Z,101617.28
2022-12-06T18:54:29.659Z,101614.97
2022-12-06T18:56:59.346Z,101602.31
2022-12-06T18:59:28.043Z,101621.44
2022-12-06T19:01:57.151Z,101613.44
2022-12-06T19:04:26.482Z,101601.50
2022-12-06T19:06:55.544Z,101616.47
2022-12-06T19:09:24.334Z,101612.03
2022-12-06T19:11:54.008Z,101615.44
2022-12-06T19:14:23.296Z,101610.91
2022-12-06T19:16:59.755Z,101617.63
2022-12-06T19:19:28.349Z,101604.16
2022-12-06T19:21:57.228Z,101599.53
2022-12-06T19:24:26.852Z,101606.84
2022-12-06T19:26:58.216Z,101601.56
2022-12-06T19:29:26.922Z,101603.13
2022-12-06T19:31:55.243Z,101593.13
2022-12-06T19:34:25.212Z,101599.81
2022-12-06T19:36:55.166Z,101593.00
2022-12-06T19:39:25.875Z,101580.56
2022-12-06T19:42:11.768Z,101585.31
2022-12-06T19:44:41.634Z,101586.75
2022-12-06T19:47:09.821Z,101586.19
2022-12-06T19:49:38.089Z,101586.19
2022-12-06T19:52:06.389Z,101598.75
2022-12-06T19:54:35.948Z,101588.78
2022-12-06T19:57:04.437Z,101583.38
2022-12-06T19:59:35.309Z,101590.78
2022-12-06T20:02:05.621Z,101592.50
2022-12-06T20:04:35.765Z,101589.69
2022-12-06T20:07:05.781Z,101586.00
2022-12-06T20:09:34.652Z,101590.00
2022-12-06T20:12:04.833Z,101584.50
2022-12-06T20:14:39.856Z,101580.66
2022-12-06T20:17:12.085Z,101577.81
2022-12-06T20:19:43.150Z,101580.41
2022-12-06T20:22:12.276Z,101577.28
2022-12-06T20:24:40.931Z,101579.56
2022-12-06T20:27:09.248Z,101588.00
2022-12-06T20:29:37.624Z,101580.75
2022-12-06T20:32:06.283Z,101569.91
2022-12-06T20:34:35.976Z,101575.91
2022-12-06T20:37:05.839Z,101573.91
2022-12-06T20:39:36.522Z,101578.91
2022-12-06T20:42:07.150Z,101583.88
2022-12-06T20:44:35.886Z,101579.91
2022-12-06T20:47:04.273Z,101587.03
2022-12-06T20:49:32.690Z,101577.63
2022-12-06T20:52:03.747Z,101576.34
2022-12-06T20:54:32.137Z,101583.16
2022-12-06T20:57:00.297Z,101577.06
2022-12-06T20:59:29.638Z,101582.78
2022-12-06T21:01:58.171Z,101579.63
2022-12-06T21:04:27.608Z,101581.47
2022-12-06T21:06:56.204Z,101582.34
2022-12-06T21:09:25.914Z,101592.72
2022-12-06T21:11:54.897Z,101592.44
2022-12-06T21:14:23.467Z,101580.47
2022-12-06T21:16:51.727Z,101586.19
2022-12-06T21:19:20.772Z,101585.03
2022-12-06T21:21:50.121Z,101584.03
2022-12-06T21:24:20.215Z,101584.44
2022-12-06T21:26:50.092Z,101591.00
2022-12-06T21:29:20.869Z,101580.88
2022-12-06T21:31:51.002Z,101594.41
2022-12-06T21:34:19.587Z,101587.56
2022-12-06T21:36:47.864Z,101586.13
2022-12-06T21:39:16.469Z,101586.13
2022-12-06T21:41:44.901Z,101589.13
2022-12-06T21:44:15.619Z,101584.72
2022-12-06T21:46:44.067Z,101584.41
2022-12-06T21:49:13.009Z,101583.84
2022-12-06T21:51:41.179Z,101587.53
2022-12-06T21:54:09.591Z,101588.81
2022-12-06T21:56:38.356Z,101588.69
2022-12-06T21:59:06.556Z,101580.56
2022-12-06T22:01:38.986Z,101579.59
2022-12-06T22:04:07.314Z,101585.25
2022-12-06T22:06:38.723Z,101570.47
2022-12-06T22:09:07.389Z,101583.13
2022-12-06T22:11:36.241Z,101579.72
2022-12-06T22:14:05.092Z,101581.69
2022-12-06T22:16:35.690Z,101583.38
2022-12-06T22:19:03.880Z,101577.00
2022-12-06T22:21:33.606Z,101583.78
2022-12-06T22:24:02.029Z,101572.16
2022-12-06T22:26:31.856Z,101570.88
2022-12-06T22:29:00.848Z,101567.31
2022-12-06T22:31:30.701Z,101559.63
2022-12-06T22:34:01.738Z,101578.72
2022-12-06T22:36:30.439Z,101574.84
2022-12-06T22:39:00.742Z,101572.56
2022-12-06T22:41:29.820Z,101576.72
2022-12-06T22:43:59.695Z,101577.00
2022-12-06T22:46:28.628Z,101568.44
2022-12-06T22:48:59.398Z,101577.56
2022-12-06T22:51:30.654Z,101570.72
2022-12-06T22:54:00.523Z,101579.84
2022-12-06T22:56:29.855Z,101574.44
2022-12-06T22:59:00.455Z,101576.97
2022-12-06T23:01:30.413Z,101572.41
2022-12-06T23:04:00.721Z,101571.88
2022-12-06T23:06:30.641Z,101574.28
2022-12-06T23:08:58.999Z,101570.16
2022-12-06T23:11:28.717Z,101559.34
2022-12-06T23:13:57.293Z,101569.59
2022-12-06T23:16:27.127Z,101566.75
2022-12-06T23:18:56.336Z,101565.72
2022-12-06T23:21:27.681Z,101579.81
2022-12-06T23:23:59.231Z,101578.38
2022-12-06T23:26:30.813Z,101570.72
2022-12-06T23:28:59.751Z,101571.72
2022-12-06T23:31:30.035Z,101572.69
2022-12-06T23:34:00.744Z,101569.25
2022-12-06T23:36:30.824Z,101572.97
2022-12-06T23:39:00.720Z,101563.28
2022-12-06T23:41:30.641Z,101575.94
2022-12-06T23:43:59.992Z,101568.41
2022-12-06T23:46:30.615Z,101574.38
2022-12-06T23:49:00.959Z,101569.84
2022-12-06T23:51:32.672Z,101569.38
2022-12-06T23:54:03.270Z,101577.78
2022-12-06T23:56:33.239Z,101563.53
2022-12-06T23:59:01.852Z,101561.81
